Bison, South Dakota
Current Conditions -  °F | °C
As of 12:53 PM on Sunday 21 Dec 2014 (Local Time) from KHEI Reporting Station
Overcast Overcast  
Wind Chill: 37°   Ceiling: 9000
Heat Index: 40°   Visibility: 10mi
Dew Point: 28°   Wind: 5mph
Humidity: 63%   Direction: 210°SSW
Pressure: 29.4"   Gusts: NA
Location:  45.52°N, 102.46°W
Report Text: KHEI 211953Z AUTO 21004KT 10SM OVC090 04/M02 A2940 RMK AO2 SLP976 T00441022
Loading
Personal Weather Stations






























Interactive Weather Map New forecast layout! Learn more

10-Day Weather Forecast

Advertisements
Track Severe Weather on mobile